Terminal Aerodrome Forecast
Issued by NWS

Home | Current Version | Previous Version | Text Only | Print | Product List | Glossary On
Versions: 1 2 3 4 5 6 7 8 9 10 11 12 13 14 15
000
FTUS45 KTFX 232300
TAFLWT
TAF
KLWT 232320Z 2400/2424 29012G20KT P6SM BKN060
     FM240200 25008KT P6SM BKN060
     FM240600 28012KT P6SM VCSH OVC030 PROB30 2409/2414 4SM -SHSN
      OVC015
     FM241600 29010KT P6SM BKN060=

USA.gov is the U.S. government's official web portal to all federal, state and local government web resources and services.